createdAt,value
2022-09-06T00:00:42.614Z,2.60
2022-09-06T00:03:09.582Z,2.95
2022-09-06T00:05:37.982Z,2.47
2022-09-06T00:08:06.449Z,2.83
2022-09-06T00:10:34.028Z,2.92
2022-09-06T00:13:02.589Z,3.15
2022-09-06T00:15:29.507Z,2.80
2022-09-06T00:17:58.440Z,2.93
2022-09-06T00:20:25.158Z,2.95
2022-09-06T00:22:51.788Z,2.72
2022-09-06T00:25:19.773Z,2.97
2022-09-06T00:27:46.421Z,3.10
2022-09-06T00:30:13.148Z,2.70
2022-09-06T00:32:39.838Z,3.00
2022-09-06T00:35:07.010Z,2.95
2022-09-06T00:37:33.692Z,2.55
2022-09-06T00:40:00.422Z,3.13
2022-09-06T00:42:28.589Z,3.00
2022-09-06T00:44:55.270Z,2.92
2022-09-06T00:47:22.028Z,2.80
2022-09-06T00:49:52.524Z,2.97
2022-09-06T00:52:21.798Z,2.92
2022-09-06T00:54:50.344Z,2.53
2022-09-06T00:57:18.156Z,2.83
2022-09-06T00:59:47.766Z,2.42
2022-09-06T01:02:14.537Z,2.50
2022-09-06T01:04:44.319Z,2.75
2022-09-06T01:07:21.685Z,2.73
2022-09-06T01:10:05.133Z,2.88
2022-09-06T01:12:41.561Z,2.75
2022-09-06T01:15:19.258Z,2.63
2022-09-06T01:17:58.485Z,3.08
2022-09-06T01:20:49.072Z,2.70
2022-09-06T01:23:43.024Z,2.75
2022-09-06T01:26:24.524Z,2.47
2022-09-06T01:28:53.778Z,2.85
2022-09-06T01:31:27.861Z,3.10
2022-09-06T01:34:07.933Z,2.90
2022-09-06T01:36:54.314Z,2.75
2022-09-06T01:39:29.173Z,3.22
2022-09-06T01:41:57.740Z,2.83
2022-09-06T01:44:28.644Z,3.00
2022-09-06T01:47:05.513Z,2.67
2022-09-06T01:49:40.957Z,2.58
2022-09-06T01:52:15.488Z,2.92
2022-09-06T01:55:02.529Z,2.85
2022-09-06T01:57:53.537Z,3.33
2022-09-06T02:00:22.171Z,2.70
2022-09-06T02:02:57.605Z,3.30
2022-09-06T02:05:30.608Z,3.33
2022-09-06T02:08:01.571Z,3.25
2022-09-06T02:10:32.147Z,3.28
2022-09-06T02:13:01.101Z,2.57
2022-09-06T02:15:32.916Z,3.28
2022-09-06T02:18:02.896Z,3.42
2022-09-06T02:20:31.996Z,3.17
2022-09-06T02:23:04.020Z,2.80
2022-09-06T02:25:35.314Z,3.00
2022-09-06T02:28:02.696Z,3.63
2022-09-06T02:30:32.116Z,3.60
2022-09-06T02:33:03.922Z,3.35
2022-09-06T02:35:30.832Z,2.92
2022-09-06T02:37:57.537Z,3.60
2022-09-06T02:40:24.376Z,3.40
2022-09-06T02:42:50.993Z,2.97
2022-09-06T02:45:17.635Z,3.60
2022-09-06T02:47:46.801Z,3.67
2022-09-06T02:50:13.833Z,3.67
2022-09-06T02:52:40.540Z,3.50
2022-09-06T02:55:08.145Z,3.55
2022-09-06T02:57:34.737Z,3.53
2022-09-06T03:00:01.861Z,3.90
2022-09-06T03:02:28.579Z,3.37
2022-09-06T03:04:56.588Z,3.45
2022-09-06T03:07:23.336Z,3.35
2022-09-06T03:09:49.992Z,3.30
2022-09-06T03:12:16.645Z,3.20
2022-09-06T03:14:43.270Z,3.37
2022-09-06T03:17:09.898Z,3.42
2022-09-06T03:19:36.545Z,3.03
2022-09-06T03:22:04.581Z,3.17
2022-09-06T03:24:31.213Z,3.67
2022-09-06T03:26:57.856Z,3.17
2022-09-06T03:29:24.564Z,4.10
2022-09-06T03:31:51.201Z,4.10
2022-09-06T03:34:18.036Z,3.97
2022-09-06T03:36:44.689Z,4.00
2022-09-06T03:39:12.641Z,3.93
2022-09-06T03:41:39.320Z,3.55
2022-09-06T03:44:06.138Z,3.60
2022-09-06T03:46:32.748Z,3.95
2022-09-06T03:48:59.725Z,4.47
2022-09-06T03:51:26.401Z,4.00
2022-09-06T03:53:53.060Z,4.03
2022-09-06T03:56:21.192Z,3.90
2022-09-06T03:58:47.974Z,4.30
2022-09-06T04:01:14.740Z,4.05
2022-09-06T04:03:41.442Z,4.23
2022-09-06T04:06:08.417Z,4.10
2022-09-06T04:08:35.965Z,3.60
2022-09-06T04:11:03.199Z,4.18
2022-09-06T04:13:32.800Z,3.88
2022-09-06T04:15:59.759Z,4.00
2022-09-06T04:18:26.599Z,4.40
2022-09-06T04:20:54.704Z,4.05
2022-09-06T04:23:22.608Z,4.30
2022-09-06T04:25:51.240Z,3.72
2022-09-06T04:28:18.589Z,4.20
2022-09-06T04:30:52.554Z,4.30
2022-09-06T04:33:19.209Z,4.20
2022-09-06T04:35:48.700Z,3.72
2022-09-06T04:38:15.328Z,4.07
2022-09-06T04:40:42.054Z,4.13
2022-09-06T04:43:08.654Z,4.30
2022-09-06T04:45:35.388Z,4.47
2022-09-06T04:48:03.713Z,5.00
2022-09-06T04:50:32.920Z,4.70
2022-09-06T04:52:59.525Z,5.27
2022-09-06T04:55:26.258Z,4.88
2022-09-06T04:57:52.900Z,4.80
2022-09-06T05:00:19.776Z,4.75
2022-09-06T05:02:46.521Z,4.72
2022-09-06T05:05:14.585Z,4.90
2022-09-06T05:07:41.220Z,5.05
2022-09-06T05:10:08.536Z,4.70
2022-09-06T05:12:42.150Z,4.40
2022-09-06T05:15:11.190Z,4.03
2022-09-06T05:17:37.765Z,4.73
2022-09-06T05:20:04.825Z,4.60
2022-09-06T05:22:32.820Z,4.28
2022-09-06T05:24:59.490Z,4.13
2022-09-06T05:27:26.223Z,4.03
2022-09-06T05:29:53.011Z,4.40
2022-09-06T05:32:19.641Z,5.45
2022-09-06T05:34:46.381Z,4.07
2022-09-06T05:37:13.025Z,4.22
2022-09-06T05:39:41.078Z,5.15
2022-09-06T05:42:07.893Z,4.27
2022-09-06T05:44:34.837Z,4.18
2022-09-06T05:47:01.490Z,4.75
2022-09-06T05:49:29.381Z,4.20
2022-09-06T05:51:56.061Z,4.38
2022-09-06T05:54:29.266Z,4.10
2022-09-06T05:56:57.357Z,4.35
2022-09-06T05:59:24.093Z,4.30
2022-09-06T06:01:52.285Z,4.32
2022-09-06T06:04:19.987Z,4.78
2022-09-06T06:06:46.950Z,4.70
2022-09-06T06:09:14.249Z,4.13
2022-09-06T06:11:41.219Z,4.32
2022-09-06T06:14:09.753Z,4.25
2022-09-06T06:16:36.442Z,4.18
2022-09-06T06:19:03.406Z,4.30
2022-09-06T06:21:31.997Z,4.70
2022-09-06T06:24:01.257Z,4.15
2022-09-06T06:26:29.921Z,4.28
2022-09-06T06:28:56.761Z,4.45
2022-09-06T06:31:24.976Z,5.03
2022-09-06T06:33:51.671Z,5.18
2022-09-06T06:36:20.521Z,4.85
2022-09-06T06:38:48.239Z,4.55
2022-09-06T06:41:16.227Z,4.57
2022-09-06T06:43:43.070Z,4.53
2022-09-06T06:46:11.613Z,4.50
2022-09-06T06:48:39.766Z,5.35
2022-09-06T06:51:06.501Z,5.10
2022-09-06T06:53:33.171Z,5.68
2022-09-06T06:55:59.962Z,4.60
2022-09-06T06:58:26.948Z,4.90
2022-09-06T07:00:53.835Z,4.72
2022-09-06T07:03:20.537Z,5.10
2022-09-06T07:08:35.697Z,5.33
2022-09-06T07:11:02.663Z,4.85
2022-09-06T07:13:29.287Z,5.53
2022-09-06T07:16:07.533Z,6.00
2022-09-06T07:18:34.261Z,5.70
2022-09-06T07:26:31.535Z,5.10
2022-09-06T07:29:00.253Z,6.18
2022-09-06T07:34:14.440Z,5.67
2022-09-06T07:36:42.429Z,5.93
2022-09-06T07:39:09.083Z,5.00
2022-09-06T07:41:35.725Z,5.90
2022-09-06T07:44:02.931Z,6.15
2022-09-06T07:46:29.720Z,5.50
2022-09-06T07:48:56.646Z,5.85
2022-09-06T07:51:23.484Z,7.03
2022-09-06T07:54:07.058Z,6.55
2022-09-06T07:56:39.889Z,6.00
2022-09-06T07:59:06.876Z,5.83
2022-09-06T08:01:35.580Z,5.70
2022-09-06T08:04:03.862Z,6.05
2022-09-06T08:09:20.987Z,5.30
2022-09-06T08:11:47.633Z,5.70
2022-09-06T08:14:14.278Z,6.10
2022-09-06T08:16:40.936Z,6.70
2022-09-06T08:19:08.141Z,6.07
2022-09-06T08:21:35.341Z,5.72
2022-09-06T08:24:03.513Z,6.37
2022-09-06T08:26:33.295Z,5.50
2022-09-06T08:29:01.150Z,6.00
2022-09-06T08:31:29.760Z,6.10
2022-09-06T08:33:56.857Z,5.28
2022-09-06T08:36:23.713Z,4.87
2022-09-06T08:38:50.325Z,5.20
2022-09-06T08:41:24.924Z,5.32
2022-09-06T08:46:50.750Z,5.45
2022-09-06T08:49:17.557Z,5.30
2022-09-06T08:51:59.193Z,4.85
2022-09-06T08:54:32.160Z,5.43
2022-09-06T08:57:14.299Z,5.22
2022-09-06T08:59:42.361Z,5.60
2022-09-06T09:02:15.082Z,5.80
2022-09-06T09:04:45.039Z,5.63
2022-09-06T09:07:29.950Z,6.03
2022-09-06T09:09:59.342Z,5.10
2022-09-06T09:12:29.037Z,5.40
2022-09-06T09:15:05.324Z,5.40
2022-09-06T09:17:32.743Z,5.75
2022-09-06T09:19:59.393Z,5.30
2022-09-06T09:22:26.049Z,5.32
2022-09-06T09:24:53.529Z,5.53
2022-09-06T09:27:22.747Z,5.47
2022-09-06T09:32:52.850Z,5.60
2022-09-06T09:35:24.085Z,5.75
2022-09-06T09:38:04.995Z,5.20
2022-09-06T09:40:37.448Z,5.57
2022-09-06T09:43:19.098Z,5.50
2022-09-06T09:46:07.659Z,6.40
2022-09-06T09:48:34.532Z,6.18
2022-09-06T09:51:25.571Z,6.40
2022-09-06T09:53:56.567Z,4.93
2022-09-06T09:56:42.070Z,5.40
2022-09-06T09:59:19.278Z,5.40
2022-09-06T10:01:47.576Z,6.10
2022-09-06T10:07:11.682Z,5.33
2022-09-06T10:09:40.814Z,5.22
2022-09-06T10:12:07.488Z,5.30
2022-09-06T10:14:42.862Z,5.60
2022-09-06T10:17:19.161Z,5.03
2022-09-06T10:19:46.162Z,4.43
2022-09-06T10:22:22.052Z,4.70
2022-09-06T10:25:12.775Z,5.00
2022-09-06T10:28:01.683Z,5.03
2022-09-06T10:30:43.534Z,5.10
2022-09-06T10:33:23.644Z,4.80
2022-09-06T10:35:50.290Z,5.63
2022-09-06T10:38:31.842Z,5.35
2022-09-06T10:41:13.001Z,5.25
2022-09-06T10:43:50.170Z,5.30
2022-09-06T10:46:19.514Z,5.00
2022-09-06T10:48:48.576Z,5.22
2022-09-06T10:51:24.396Z,5.53
2022-09-06T10:53:54.697Z,5.32
2022-09-06T10:56:26.847Z,4.68
2022-09-06T11:01:57.921Z,4.47
2022-09-06T11:04:32.256Z,4.68
2022-09-06T11:07:03.445Z,5.35
2022-09-06T11:09:35.120Z,4.82
2022-09-06T11:12:08.101Z,5.23
2022-09-06T11:14:36.306Z,5.72
2022-09-06T11:17:07.334Z,5.20
2022-09-06T11:19:44.625Z,5.30
2022-09-06T11:22:48.239Z,5.00
2022-09-06T11:25:45.676Z,4.90
2022-09-06T11:28:17.254Z,5.70
2022-09-06T11:30:46.106Z,5.80
2022-09-06T11:33:22.349Z,4.82
2022-09-06T11:35:50.653Z,5.68
2022-09-06T11:38:23.358Z,5.03
2022-09-06T11:40:57.316Z,4.68
2022-09-06T11:43:43.542Z,4.25
2022-09-06T11:46:10.152Z,5.22
2022-09-06T11:49:01.122Z,5.30
2022-09-06T11:51:35.412Z,4.87
2022-09-06T11:54:25.472Z,4.65
2022-09-06T11:56:57.429Z,4.07
2022-09-06T11:59:58.515Z,4.38
2022-09-06T12:02:36.781Z,4.40
2022-09-06T12:05:22.657Z,4.47
2022-09-06T12:08:27.230Z,4.60
2022-09-06T12:10:59.683Z,4.32
2022-09-06T12:13:40.089Z,4.40
2022-09-06T12:16:07.833Z,3.65
2022-09-06T12:18:54.852Z,4.13
2022-09-06T12:21:42.304Z,4.18
2022-09-06T12:24:49.205Z,4.20
2022-09-06T12:27:17.028Z,4.15
2022-09-06T12:29:56.338Z,4.22
2022-09-06T12:32:27.595Z,3.93
2022-09-06T12:37:51.092Z,3.83
2022-09-06T12:40:21.848Z,3.70
2022-09-06T12:42:49.331Z,3.72
2022-09-06T12:45:16.318Z,4.23
2022-09-06T12:47:42.930Z,3.72
2022-09-06T12:50:15.077Z,3.92
2022-09-06T12:52:49.752Z,3.97
2022-09-06T12:55:22.377Z,3.78
2022-09-06T12:57:51.455Z,3.70
2022-09-06T13:00:19.111Z,3.88
2022-09-06T13:03:03.460Z,3.38
2022-09-06T13:05:30.387Z,3.72
2022-09-06T13:08:00.060Z,3.45
2022-09-06T13:10:28.923Z,3.47
2022-09-06T13:12:57.964Z,3.78
2022-09-06T13:15:27.029Z,3.20
2022-09-06T13:17:54.921Z,3.72
2022-09-06T13:20:25.350Z,3.65
2022-09-06T13:22:52.409Z,3.07
2022-09-06T13:25:24.873Z,3.17
2022-09-06T13:27:54.182Z,2.97
2022-09-06T13:30:36.706Z,3.00
2022-09-06T13:33:06.306Z,3.15
2022-09-06T13:35:35.802Z,2.90
2022-09-06T13:38:29.588Z,2.92
2022-09-06T13:41:15.824Z,3.35
2022-09-06T13:43:46.194Z,3.55
2022-09-06T13:46:12.988Z,2.88
2022-09-06T13:48:40.136Z,2.50
2022-09-06T13:51:08.064Z,2.40
2022-09-06T13:53:35.452Z,2.58
2022-09-06T13:56:02.474Z,2.50
2022-09-06T13:58:29.169Z,2.45
2022-09-06T14:00:58.338Z,2.73
2022-09-06T14:03:29.294Z,3.00
2022-09-06T14:05:55.956Z,3.20
2022-09-06T14:08:23.056Z,3.08
2022-09-06T14:10:50.809Z,2.88
2022-09-06T14:13:18.181Z,2.97
2022-09-06T14:15:45.307Z,3.05
2022-09-06T14:18:14.560Z,2.55
2022-09-06T14:20:41.944Z,2.80
2022-09-06T14:23:09.302Z,2.80
2022-09-06T14:25:36.385Z,2.70
2022-09-06T14:28:04.025Z,2.60
2022-09-06T14:30:30.871Z,2.90
2022-09-06T14:32:57.533Z,2.60
2022-09-06T14:35:25.503Z,2.70
2022-09-06T14:37:52.163Z,2.57
2022-09-06T14:40:18.832Z,2.30
2022-09-06T14:42:49.872Z,2.70
2022-09-06T14:45:18.126Z,2.55
2022-09-06T14:47:44.834Z,2.78
2022-09-06T14:50:11.619Z,3.00
2022-09-06T14:52:39.644Z,2.55
2022-09-06T14:55:06.972Z,2.67
2022-09-06T14:57:33.690Z,2.75
2022-09-06T15:00:00.441Z,2.60
2022-09-06T15:02:27.218Z,2.50
2022-09-06T15:04:53.975Z,2.50
2022-09-06T15:07:20.772Z,2.35
2022-09-06T15:09:48.829Z,2.95
2022-09-06T15:12:15.478Z,2.13
2022-09-06T15:14:42.162Z,2.30
2022-09-06T15:17:09.037Z,2.22
2022-09-06T15:19:35.810Z,2.30
2022-09-06T15:22:03.196Z,1.77
2022-09-06T15:24:30.087Z,2.10
2022-09-06T15:26:58.449Z,2.20
2022-09-06T15:29:25.422Z,2.85
2022-09-06T15:31:52.091Z,1.90
2022-09-06T15:34:22.440Z,2.13
2022-09-06T15:36:49.403Z,2.25
2022-09-06T15:39:16.644Z,2.07
2022-09-06T15:41:43.362Z,1.88
2022-09-06T15:44:12.881Z,2.28
2022-09-06T15:46:43.204Z,1.80
2022-09-06T15:49:12.119Z,1.85
2022-09-06T15:51:39.920Z,2.10
2022-09-06T15:54:07.114Z,1.50
2022-09-06T15:56:33.813Z,1.50
2022-09-06T15:59:00.505Z,2.00
2022-09-06T16:01:28.672Z,1.65
2022-09-06T16:03:57.419Z,1.53
2022-09-06T16:06:27.406Z,1.60
2022-09-06T16:08:57.498Z,1.50
2022-09-06T16:11:24.383Z,1.50
2022-09-06T16:13:51.065Z,2.00
2022-09-06T16:16:17.874Z,1.70
2022-09-06T16:18:46.164Z,1.75
2022-09-06T16:21:15.214Z,1.48
2022-09-06T16:23:42.503Z,1.73
2022-09-06T16:26:09.897Z,1.90
2022-09-06T16:28:37.785Z,1.90
2022-09-06T16:31:06.618Z,2.17
2022-09-06T16:33:35.324Z,2.00
2022-09-06T16:36:06.249Z,1.83
2022-09-06T16:38:33.217Z,1.85
2022-09-06T16:41:01.145Z,1.70
2022-09-06T16:43:28.195Z,1.92
2022-09-06T16:45:56.502Z,1.77
2022-09-06T16:48:23.322Z,2.00
2022-09-06T16:50:50.357Z,1.65
2022-09-06T16:53:21.968Z,1.53
2022-09-06T16:55:49.258Z,1.85
2022-09-06T16:58:16.448Z,1.95
2022-09-06T17:00:44.715Z,1.80
2022-09-06T17:03:12.552Z,2.00
2022-09-06T17:05:39.488Z,2.10
2022-09-06T17:08:06.273Z,2.10
2022-09-06T17:10:38.078Z,2.13
2022-09-06T17:13:04.901Z,1.90
2022-09-06T17:15:31.713Z,1.60
2022-09-06T17:17:58.393Z,1.65
2022-09-06T17:20:25.145Z,1.88
2022-09-06T17:22:51.867Z,1.90
2022-09-06T17:25:18.541Z,1.95
2022-09-06T17:27:46.592Z,1.90
2022-09-06T17:30:13.274Z,1.50
2022-09-06T17:32:40.040Z,1.77
2022-09-06T17:35:07.230Z,2.03
2022-09-06T17:37:33.922Z,1.92
2022-09-06T17:40:00.627Z,2.60
2022-09-06T17:42:27.362Z,1.92
2022-09-06T17:44:55.420Z,2.20
2022-09-06T17:47:22.131Z,2.40
2022-09-06T17:49:48.870Z,1.88
2022-09-06T17:52:15.629Z,2.10
2022-09-06T17:54:43.872Z,2.00
2022-09-06T17:57:10.574Z,2.28
2022-09-06T17:59:37.266Z,2.17
2022-09-06T18:02:05.417Z,2.15
2022-09-06T18:04:32.274Z,2.43
2022-09-06T18:06:58.987Z,2.50
2022-09-06T18:09:25.703Z,2.47
2022-09-06T18:11:52.406Z,2.40
2022-09-06T18:14:19.165Z,2.03
2022-09-06T18:16:46.267Z,2.57
2022-09-06T18:19:15.382Z,2.97
2022-09-06T18:21:42.188Z,2.78
2022-09-06T18:24:10.047Z,2.45
2022-09-06T18:26:36.931Z,3.00
2022-09-06T18:29:04.159Z,3.10
2022-09-06T18:31:31.098Z,3.40
2022-09-06T18:33:57.831Z,2.95
2022-09-06T18:36:31.186Z,2.75
2022-09-06T18:39:00.643Z,2.63
2022-09-06T18:41:27.310Z,2.77
2022-09-06T18:43:55.738Z,2.90
2022-09-06T18:46:22.444Z,2.45
2022-09-06T18:48:49.314Z,2.60
2022-09-06T18:51:16.056Z,2.88
2022-09-06T18:53:44.848Z,3.13
2022-09-06T18:56:13.619Z,3.50
2022-09-06T18:58:40.876Z,2.83
2022-09-06T19:01:09.119Z,2.92
2022-09-06T19:03:37.512Z,2.67
2022-09-06T19:06:05.128Z,3.00
2022-09-06T19:08:59.052Z,3.00
2022-09-06T19:11:25.809Z,2.63
2022-09-06T19:13:54.638Z,2.80
2022-09-06T19:16:22.883Z,2.80
2022-09-06T19:18:50.277Z,2.80
2022-09-06T19:21:18.806Z,2.70
2022-09-06T19:23:47.632Z,2.50
2022-09-06T19:26:17.355Z,2.85
2022-09-06T19:28:48.938Z,2.28
2022-09-06T19:31:16.212Z,2.70
2022-09-06T19:33:44.899Z,2.88
2022-09-06T19:36:12.529Z,2.45
2022-09-06T19:39:02.681Z,2.80
2022-09-06T19:41:29.701Z,2.85
2022-09-06T19:43:57.273Z,2.43
2022-09-06T19:46:24.794Z,2.80
2022-09-06T19:48:53.310Z,2.70
2022-09-06T19:51:20.624Z,2.75
2022-09-06T19:53:49.447Z,3.20
2022-09-06T19:56:17.689Z,3.10
2022-09-06T19:58:46.074Z,3.05
2022-09-06T20:01:13.880Z,3.28
2022-09-06T20:03:40.612Z,3.30
2022-09-06T20:06:08.489Z,2.92
2022-09-06T20:08:36.069Z,3.37
2022-09-06T20:11:03.705Z,3.25
2022-09-06T20:13:30.895Z,2.90
2022-09-06T20:15:58.984Z,3.22
2022-09-06T20:18:25.731Z,3.85
2022-09-06T20:20:54.470Z,3.57
2022-09-06T20:23:21.557Z,3.08
2022-09-06T20:25:58.407Z,3.08
2022-09-06T20:28:25.292Z,3.38
2022-09-06T20:30:51.993Z,3.45
2022-09-06T20:33:20.260Z,3.67
2022-09-06T20:35:55.282Z,3.20
2022-09-06T20:38:21.940Z,3.30
2022-09-06T20:40:56.317Z,3.10
2022-09-06T20:43:22.972Z,3.42
2022-09-06T20:45:49.740Z,3.13
2022-09-06T20:48:16.460Z,3.00
2022-09-06T20:50:44.622Z,3.17
2022-09-06T20:53:11.365Z,3.67
2022-09-06T20:55:38.065Z,3.40
2022-09-06T20:58:04.744Z,3.17
2022-09-06T21:00:31.426Z,3.83
2022-09-06T21:02:58.129Z,3.30
2022-09-06T21:05:24.817Z,2.97
2022-09-06T21:07:52.895Z,3.63
2022-09-06T21:10:19.587Z,3.53
2022-09-06T21:12:46.284Z,3.30
2022-09-06T21:15:13.093Z,3.90
2022-09-06T21:17:39.777Z,3.47
2022-09-06T21:20:07.363Z,4.18
2022-09-06T21:22:34.004Z,3.90
2022-09-06T21:25:02.057Z,3.40
2022-09-06T21:27:28.705Z,3.72
2022-09-06T21:29:55.353Z,3.88
2022-09-06T21:32:21.977Z,3.55
2022-09-06T21:34:48.692Z,3.93
2022-09-06T21:37:15.337Z,3.80
2022-09-06T21:39:42.063Z,3.35
2022-09-06T21:42:10.214Z,3.53
2022-09-06T21:44:36.901Z,4.35
2022-09-06T21:47:03.690Z,3.47
2022-09-06T21:49:30.441Z,4.07
2022-09-06T21:51:57.130Z,3.63
2022-09-06T21:54:23.782Z,3.92
2022-09-06T21:56:50.431Z,3.47
2022-09-06T21:59:18.785Z,3.50
2022-09-06T22:01:45.505Z,3.38
2022-09-06T22:04:12.687Z,3.10
2022-09-06T22:06:39.632Z,3.70
2022-09-06T22:09:08.131Z,3.85
2022-09-06T22:11:35.200Z,3.73
2022-09-06T22:14:03.619Z,3.92
2022-09-06T22:16:33.717Z,4.15
2022-09-06T22:19:01.129Z,3.45
2022-09-06T22:21:27.822Z,3.60
2022-09-06T22:23:56.237Z,3.47
2022-09-06T22:26:24.153Z,3.55
2022-09-06T22:28:54.633Z,3.50
2022-09-06T22:31:21.773Z,3.30
2022-09-06T22:33:50.293Z,3.60
2022-09-06T22:36:17.136Z,3.87
2022-09-06T22:38:43.836Z,3.58
2022-09-06T22:41:11.266Z,3.67
2022-09-06T22:43:37.927Z,3.30
2022-09-06T22:46:05.753Z,3.88
2022-09-06T22:48:33.024Z,3.77
2022-09-06T22:51:01.571Z,3.92
2022-09-06T22:53:29.226Z,3.78
2022-09-06T22:55:56.299Z,3.95
2022-09-06T22:58:24.502Z,3.90
2022-09-06T23:00:51.239Z,4.40
2022-09-06T23:03:18.116Z,3.97
2022-09-06T23:05:44.855Z,3.55
2022-09-06T23:08:14.329Z,3.65
2022-09-06T23:10:42.400Z,4.13
2022-09-06T23:13:09.825Z,3.87
2022-09-06T23:15:37.429Z,3.63
2022-09-06T23:18:04.635Z,4.30
2022-09-06T23:20:31.352Z,4.20
2022-09-06T23:22:57.993Z,4.15
2022-09-06T23:25:26.072Z,3.83
2022-09-06T23:27:52.742Z,4.18
2022-09-06T23:30:19.422Z,3.80
2022-09-06T23:32:46.089Z,4.00
2022-09-06T23:35:12.721Z,4.35
2022-09-06T23:37:39.386Z,5.30
2022-09-06T23:40:09.242Z,4.80
2022-09-06T23:42:37.463Z,4.68
2022-09-06T23:45:04.613Z,4.25
2022-09-06T23:47:31.308Z,4.50
2022-09-06T23:49:57.975Z,4.37
2022-09-06T23:52:24.687Z,4.18
2022-09-06T23:54:51.366Z,4.45
2022-09-06T23:57:18.050Z,4.03
2022-09-06T23:59:46.218Z,4.30
